sensor_id;sensor_type;location;lat;lon;timestamp;P1;durP1;ratioP1;P2;durP2;ratioP2
2674;SDS011;1347;42.122;24.746;2023-05-19T00:01:01;3.17;;;2.90;;
2674;SDS011;1347;42.122;24.746;2023-05-19T00:03:29;3.43;;;3.13;;
2674;SDS011;1347;42.122;24.746;2023-05-19T00:05:57;3.50;;;3.07;;
2674;SDS011;1347;42.122;24.746;2023-05-19T00:08:27;6.60;;;3.20;;
2674;SDS011;1347;42.122;24.746;2023-05-19T00:10:56;4.03;;;3.63;;
2674;SDS011;1347;42.122;24.746;2023-05-19T00:13:24;3.70;;;2.83;;
2674;SDS011;1347;42.122;24.746;2023-05-19T00:15:52;4.10;;;3.40;;
2674;SDS011;1347;42.122;24.746;2023-05-19T00:18:20;4.40;;;3.47;;
2674;SDS011;1347;42.122;24.746;2023-05-19T00:20:47;6.17;;;3.70;;
2674;SDS011;1347;42.122;24.746;2023-05-19T00:23:15;5.23;;;3.87;;
2674;SDS011;1347;42.122;24.746;2023-05-19T00:25:42;4.40;;;3.83;;
2674;SDS011;1347;42.122;24.746;2023-05-19T00:28:08;3.57;;;3.27;;
2674;SDS011;1347;42.122;24.746;2023-05-19T00:30:35;4.90;;;3.63;;
2674;SDS011;1347;42.122;24.746;2023-05-19T00:33:03;3.93;;;3.53;;
2674;SDS011;1347;42.122;24.746;2023-05-19T00:35:30;4.20;;;3.80;;
2674;SDS011;1347;42.122;24.746;2023-05-19T00:37:57;4.20;;;3.80;;
2674;SDS011;1347;42.122;24.746;2023-05-19T00:40:24;6.93;;;3.80;;
2674;SDS011;1347;42.122;24.746;2023-05-19T00:42:52;6.27;;;3.00;;
2674;SDS011;1347;42.122;24.746;2023-05-19T00:45:19;4.20;;;3.50;;
2674;SDS011;1347;42.122;24.746;2023-05-19T00:47:46;5.30;;;3.30;;
2674;SDS011;1347;42.122;24.746;2023-05-19T00:50:15;4.40;;;3.57;;
2674;SDS011;1347;42.122;24.746;2023-05-19T00:52:42;4.27;;;3.90;;
2674;SDS011;1347;42.122;24.746;2023-05-19T00:55:09;3.97;;;3.67;;
2674;SDS011;1347;42.122;24.746;2023-05-19T00:57:38;3.40;;;3.10;;
2674;SDS011;1347;42.122;24.746;2023-05-19T01:00:05;4.40;;;4.00;;
2674;SDS011;1347;42.122;24.746;2023-05-19T01:02:33;4.87;;;4.03;;
2674;SDS011;1347;42.122;24.746;2023-05-19T01:05:02;5.00;;;3.60;;
2674;SDS011;1347;42.122;24.746;2023-05-19T01:07:32;5.13;;;4.30;;
2674;SDS011;1347;42.122;24.746;2023-05-19T01:10:00;4.53;;;4.13;;
2674;SDS011;1347;42.122;24.746;2023-05-19T01:12:28;5.13;;;3.70;;
2674;SDS011;1347;42.122;24.746;2023-05-19T01:14:56;4.13;;;3.40;;
2674;SDS011;1347;42.122;24.746;2023-05-19T01:17:25;5.07;;;4.57;;
2674;SDS011;1347;42.122;24.746;2023-05-19T01:19:59;5.17;;;3.77;;
2674;SDS011;1347;42.122;24.746;2023-05-19T01:23:01;5.00;;;3.90;;
2674;SDS011;1347;42.122;24.746;2023-05-19T01:25:54;4.47;;;3.20;;
2674;SDS011;1347;42.122;24.746;2023-05-19T01:28:52;4.90;;;3.60;;
2674;SDS011;1347;42.122;24.746;2023-05-19T01:31:34;3.90;;;3.40;;
2674;SDS011;1347;42.122;24.746;2023-05-19T01:34:02;3.90;;;3.50;;
2674;SDS011;1347;42.122;24.746;2023-05-19T01:36:30;4.60;;;3.50;;
2674;SDS011;1347;42.122;24.746;2023-05-19T01:38:59;4.80;;;4.30;;
2674;SDS011;1347;42.122;24.746;2023-05-19T01:41:27;5.50;;;4.10;;
2674;SDS011;1347;42.122;24.746;2023-05-19T01:43:56;6.97;;;3.83;;
2674;SDS011;1347;42.122;24.746;2023-05-19T01:46:24;4.40;;;3.80;;
2674;SDS011;1347;42.122;24.746;2023-05-19T01:48:52;9.77;;;3.90;;
2674;SDS011;1347;42.122;24.746;2023-05-19T01:51:20;3.50;;;3.20;;
2674;SDS011;1347;42.122;24.746;2023-05-19T01:53:46;3.60;;;3.30;;
2674;SDS011;1347;42.122;24.746;2023-05-19T01:56:14;9.00;;;4.00;;
2674;SDS011;1347;42.122;24.746;2023-05-19T01:58:47;4.97;;;3.93;;
2674;SDS011;1347;42.122;24.746;2023-05-19T02:01:24;4.60;;;3.60;;
2674;SDS011;1347;42.122;24.746;2023-05-19T02:04:03;5.13;;;3.90;;
2674;SDS011;1347;42.122;24.746;2023-05-19T02:06:43;7.03;;;4.10;;
2674;SDS011;1347;42.122;24.746;2023-05-19T02:09:16;4.50;;;4.10;;
2674;SDS011;1347;42.122;24.746;2023-05-19T02:11:51;4.70;;;3.70;;
2674;SDS011;1347;42.122;24.746;2023-05-19T02:14:23;4.90;;;3.77;;
2674;SDS011;1347;42.122;24.746;2023-05-19T02:16:55;6.80;;;4.73;;
2674;SDS011;1347;42.122;24.746;2023-05-19T02:19:25;4.07;;;3.70;;
2674;SDS011;1347;42.122;24.746;2023-05-19T02:21:53;4.73;;;4.33;;
2674;SDS011;1347;42.122;24.746;2023-05-19T02:24:20;4.83;;;4.43;;
2674;SDS011;1347;42.122;24.746;2023-05-19T02:26:47;4.63;;;4.23;;
2674;SDS011;1347;42.122;24.746;2023-05-19T02:29:14;7.47;;;4.17;;
2674;SDS011;1347;42.122;24.746;2023-05-19T02:31:41;8.47;;;4.33;;
2674;SDS011;1347;42.122;24.746;2023-05-19T02:34:08;5.10;;;4.70;;
2674;SDS011;1347;42.122;24.746;2023-05-19T02:36:37;4.70;;;4.20;;
2674;SDS011;1347;42.122;24.746;2023-05-19T02:39:05;6.63;;;4.10;;
2674;SDS011;1347;42.122;24.746;2023-05-19T02:41:32;4.53;;;4.13;;
2674;SDS011;1347;42.122;24.746;2023-05-19T02:43:59;5.17;;;4.67;;
2674;SDS011;1347;42.122;24.746;2023-05-19T02:46:26;4.83;;;4.40;;
2674;SDS011;1347;42.122;24.746;2023-05-19T02:48:53;4.47;;;4.00;;
2674;SDS011;1347;42.122;24.746;2023-05-19T02:51:20;4.50;;;4.10;;
2674;SDS011;1347;42.122;24.746;2023-05-19T02:53:48;6.87;;;4.53;;
2674;SDS011;1347;42.122;24.746;2023-05-19T02:56:15;4.70;;;3.60;;
2674;SDS011;1347;42.122;24.746;2023-05-19T02:58:42;6.80;;;4.10;;
2674;SDS011;1347;42.122;24.746;2023-05-19T03:01:08;4.93;;;3.57;;
2674;SDS011;1347;42.122;24.746;2023-05-19T03:03:36;5.07;;;4.57;;
2674;SDS011;1347;42.122;24.746;2023-05-19T03:06:03;5.23;;;4.27;;
2674;SDS011;1347;42.122;24.746;2023-05-19T03:08:32;5.50;;;4.93;;
2674;SDS011;1347;42.122;24.746;2023-05-19T03:11:01;7.03;;;4.50;;
2674;SDS011;1347;42.122;24.746;2023-05-19T03:13:28;5.63;;;4.80;;
2674;SDS011;1347;42.122;24.746;2023-05-19T03:15:54;7.73;;;5.17;;
2674;SDS011;1347;42.122;24.746;2023-05-19T03:18:23;4.83;;;4.33;;
2674;SDS011;1347;42.122;24.746;2023-05-19T03:20:50;5.57;;;5.00;;
2674;SDS011;1347;42.122;24.746;2023-05-19T03:23:18;5.03;;;4.60;;
2674;SDS011;1347;42.122;24.746;2023-05-19T03:25:44;6.77;;;5.50;;
2674;SDS011;1347;42.122;24.746;2023-05-19T03:28:13;9.53;;;4.87;;
2674;SDS011;1347;42.122;24.746;2023-05-19T03:30:40;4.90;;;4.50;;
2674;SDS011;1347;42.122;24.746;2023-05-19T03:33:06;6.83;;;4.60;;
2674;SDS011;1347;42.122;24.746;2023-05-19T03:35:33;5.90;;;3.93;;
2674;SDS011;1347;42.122;24.746;2023-05-19T03:38:00;7.23;;;4.83;;
2674;SDS011;1347;42.122;24.746;2023-05-19T03:40:27;5.47;;;4.97;;
2674;SDS011;1347;42.122;24.746;2023-05-19T03:42:54;8.20;;;5.23;;
2674;SDS011;1347;42.122;24.746;2023-05-19T03:45:22;7.40;;;5.70;;
2674;SDS011;1347;42.122;24.746;2023-05-19T03:47:49;5.93;;;5.33;;
2674;SDS011;1347;42.122;24.746;2023-05-19T03:50:16;7.80;;;5.67;;
2674;SDS011;1347;42.122;24.746;2023-05-19T03:52:43;6.40;;;5.37;;
2674;SDS011;1347;42.122;24.746;2023-05-19T03:55:12;6.07;;;5.43;;
2674;SDS011;1347;42.122;24.746;2023-05-19T03:57:40;5.80;;;5.13;;
2674;SDS011;1347;42.122;24.746;2023-05-19T04:00:07;6.00;;;5.40;;
2674;SDS011;1347;42.122;24.746;2023-05-19T04:02:37;6.53;;;5.50;;
2674;SDS011;1347;42.122;24.746;2023-05-19T04:05:04;7.93;;;6.00;;
2674;SDS011;1347;42.122;24.746;2023-05-19T04:07:31;7.37;;;5.27;;
2674;SDS011;1347;42.122;24.746;2023-05-19T04:09:58;7.43;;;4.93;;
2674;SDS011;1347;42.122;24.746;2023-05-19T04:12:25;11.40;;;5.73;;
2674;SDS011;1347;42.122;24.746;2023-05-19T04:14:52;5.50;;;5.00;;
2674;SDS011;1347;42.122;24.746;2023-05-19T04:17:19;6.33;;;5.47;;
2674;SDS011;1347;42.122;24.746;2023-05-19T04:19:49;6.07;;;5.00;;
2674;SDS011;1347;42.122;24.746;2023-05-19T04:22:15;6.80;;;5.33;;
2674;SDS011;1347;42.122;24.746;2023-05-19T04:24:42;7.53;;;5.50;;
2674;SDS011;1347;42.122;24.746;2023-05-19T04:27:10;7.07;;;5.30;;
2674;SDS011;1347;42.122;24.746;2023-05-19T04:29:37;6.73;;;6.13;;
2674;SDS011;1347;42.122;24.746;2023-05-19T04:32:04;7.27;;;5.93;;
2674;SDS011;1347;42.122;24.746;2023-05-19T04:34:32;7.70;;;5.87;;
2674;SDS011;1347;42.122;24.746;2023-05-19T04:37:00;7.13;;;5.50;;
2674;SDS011;1347;42.122;24.746;2023-05-19T04:39:28;5.57;;;4.93;;
2674;SDS011;1347;42.122;24.746;2023-05-19T04:41:55;6.40;;;5.50;;
2674;SDS011;1347;42.122;24.746;2023-05-19T04:44:22;14.10;;;6.67;;
2674;SDS011;1347;42.122;24.746;2023-05-19T04:46:49;6.97;;;6.27;;
2674;SDS011;1347;42.122;24.746;2023-05-19T04:49:18;6.73;;;6.03;;
2674;SDS011;1347;42.122;24.746;2023-05-19T04:51:45;8.03;;;5.40;;
2674;SDS011;1347;42.122;24.746;2023-05-19T04:54:15;7.27;;;5.80;;
2674;SDS011;1347;42.122;24.746;2023-05-19T04:56:42;9.93;;;6.17;;
2674;SDS011;1347;42.122;24.746;2023-05-19T04:59:09;6.27;;;5.57;;
2674;SDS011;1347;42.122;24.746;2023-05-19T05:01:36;9.43;;;5.53;;
2674;SDS011;1347;42.122;24.746;2023-05-19T05:04:04;5.87;;;5.37;;
2674;SDS011;1347;42.122;24.746;2023-05-19T05:06:31;9.60;;;5.60;;
2674;SDS011;1347;42.122;24.746;2023-05-19T05:08:58;6.13;;;5.50;;
2674;SDS011;1347;42.122;24.746;2023-05-19T05:11:29;7.60;;;6.90;;
2674;SDS011;1347;42.122;24.746;2023-05-19T05:13:57;9.50;;;5.40;;
2674;SDS011;1347;42.122;24.746;2023-05-19T05:16:24;7.30;;;6.63;;
2674;SDS011;1347;42.122;24.746;2023-05-19T05:18:52;7.20;;;5.63;;
2674;SDS011;1347;42.122;24.746;2023-05-19T05:21:20;9.43;;;5.93;;
2674;SDS011;1347;42.122;24.746;2023-05-19T05:23:48;7.60;;;5.60;;
2674;SDS011;1347;42.122;24.746;2023-05-19T05:26:18;12.03;;;7.13;;
2674;SDS011;1347;42.122;24.746;2023-05-19T05:28:48;6.87;;;6.10;;
2674;SDS011;1347;42.122;24.746;2023-05-19T05:31:18;6.10;;;5.47;;
2674;SDS011;1347;42.122;24.746;2023-05-19T05:33:46;7.40;;;6.70;;
2674;SDS011;1347;42.122;24.746;2023-05-19T05:36:16;8.53;;;6.37;;
2674;SDS011;1347;42.122;24.746;2023-05-19T05:38:46;6.90;;;6.20;;
2674;SDS011;1347;42.122;24.746;2023-05-19T05:41:17;6.03;;;5.53;;
2674;SDS011;1347;42.122;24.746;2023-05-19T05:43:45;8.43;;;6.90;;
2674;SDS011;1347;42.122;24.746;2023-05-19T05:46:15;8.90;;;6.90;;
2674;SDS011;1347;42.122;24.746;2023-05-19T05:48:43;7.27;;;6.77;;
2674;SDS011;1347;42.122;24.746;2023-05-19T05:51:11;8.83;;;6.33;;
2674;SDS011;1347;42.122;24.746;2023-05-19T05:53:50;7.57;;;6.77;;
2674;SDS011;1347;42.122;24.746;2023-05-19T05:56:18;7.93;;;7.23;;
2674;SDS011;1347;42.122;24.746;2023-05-19T05:58:45;7.40;;;6.70;;
2674;SDS011;1347;42.122;24.746;2023-05-19T06:01:15;7.80;;;7.10;;
2674;SDS011;1347;42.122;24.746;2023-05-19T06:03:41;10.93;;;7.77;;
2674;SDS011;1347;42.122;24.746;2023-05-19T06:06:09;7.33;;;6.60;;
2674;SDS011;1347;42.122;24.746;2023-05-19T06:08:36;8.47;;;6.93;;
2674;SDS011;1347;42.122;24.746;2023-05-19T06:11:03;11.17;;;7.53;;
2674;SDS011;1347;42.122;24.746;2023-05-19T06:13:33;7.73;;;6.83;;
2674;SDS011;1347;42.122;24.746;2023-05-19T06:16:00;8.30;;;7.50;;
2674;SDS011;1347;42.122;24.746;2023-05-19T06:18:28;11.93;;;7.50;;
2674;SDS011;1347;42.122;24.746;2023-05-19T06:20:55;10.70;;;7.03;;
2674;SDS011;1347;42.122;24.746;2023-05-19T06:23:22;8.50;;;6.20;;
2674;SDS011;1347;42.122;24.746;2023-05-19T06:25:50;7.67;;;6.87;;
2674;SDS011;1347;42.122;24.746;2023-05-19T06:28:17;8.00;;;7.23;;
2674;SDS011;1347;42.122;24.746;2023-05-19T06:30:44;8.60;;;7.23;;
2674;SDS011;1347;42.122;24.746;2023-05-19T06:33:11;11.70;;;7.23;;
2674;SDS011;1347;42.122;24.746;2023-05-19T06:35:39;8.33;;;7.10;;
2674;SDS011;1347;42.122;24.746;2023-05-19T06:38:06;8.40;;;7.67;;
2674;SDS011;1347;42.122;24.746;2023-05-19T06:40:33;9.70;;;7.63;;
2674;SDS011;1347;42.122;24.746;2023-05-19T06:43:01;9.13;;;8.23;;
2674;SDS011;1347;42.122;24.746;2023-05-19T06:45:30;9.63;;;7.20;;
2674;SDS011;1347;42.122;24.746;2023-05-19T06:47:57;8.87;;;7.97;;
2674;SDS011;1347;42.122;24.746;2023-05-19T06:50:24;17.87;;;8.53;;
2674;SDS011;1347;42.122;24.746;2023-05-19T06:52:53;12.43;;;7.67;;
2674;SDS011;1347;42.122;24.746;2023-05-19T06:55:21;9.07;;;8.10;;
2674;SDS011;1347;42.122;24.746;2023-05-19T06:57:48;11.70;;;7.73;;
2674;SDS011;1347;42.122;24.746;2023-05-19T07:00:15;9.40;;;7.97;;
2674;SDS011;1347;42.122;24.746;2023-05-19T07:02:42;9.30;;;8.50;;
2674;SDS011;1347;42.122;24.746;2023-05-19T07:05:09;9.03;;;8.10;;
2674;SDS011;1347;42.122;24.746;2023-05-19T07:07:36;10.73;;;8.57;;
2674;SDS011;1347;42.122;24.746;2023-05-19T07:10:05;12.53;;;7.93;;
2674;SDS011;1347;42.122;24.746;2023-05-19T07:12:32;9.80;;;8.37;;
2674;SDS011;1347;42.122;24.746;2023-05-19T07:14:59;9.00;;;8.10;;
2674;SDS011;1347;42.122;24.746;2023-05-19T07:17:26;9.87;;;8.30;;
2674;SDS011;1347;42.122;24.746;2023-05-19T07:19:53;11.90;;;10.20;;
2674;SDS011;1347;42.122;24.746;2023-05-19T07:22:19;12.13;;;9.50;;
2674;SDS011;1347;42.122;24.746;2023-05-19T07:24:48;13.87;;;8.80;;
2674;SDS011;1347;42.122;24.746;2023-05-19T07:27:16;9.93;;;8.87;;
2674;SDS011;1347;42.122;24.746;2023-05-19T07:29:43;9.53;;;8.70;;
2674;SDS011;1347;42.122;24.746;2023-05-19T07:32:10;12.53;;;9.07;;
2674;SDS011;1347;42.122;24.746;2023-05-19T07:34:37;10.43;;;8.17;;
2674;SDS011;1347;42.122;24.746;2023-05-19T07:37:04;13.23;;;8.43;;
2674;SDS011;1347;42.122;24.746;2023-05-19T07:39:30;10.30;;;9.20;;
2674;SDS011;1347;42.122;24.746;2023-05-19T07:41:59;11.10;;;9.43;;
2674;SDS011;1347;42.122;24.746;2023-05-19T07:44:27;9.03;;;8.23;;
2674;SDS011;1347;42.122;24.746;2023-05-19T07:46:55;10.30;;;9.40;;
2674;SDS011;1347;42.122;24.746;2023-05-19T07:49:22;10.20;;;9.23;;
2674;SDS011;1347;42.122;24.746;2023-05-19T07:51:49;12.47;;;9.00;;
2674;SDS011;1347;42.122;24.746;2023-05-19T07:54:16;9.70;;;8.80;;
2674;SDS011;1347;42.122;24.746;2023-05-19T07:56:43;8.70;;;7.90;;
2674;SDS011;1347;42.122;24.746;2023-05-19T07:59:09;8.57;;;7.87;;
2674;SDS011;1347;42.122;24.746;2023-05-19T08:01:38;11.03;;;7.97;;
2674;SDS011;1347;42.122;24.746;2023-05-19T08:04:06;9.40;;;8.50;;
2674;SDS011;1347;42.122;24.746;2023-05-19T08:06:33;12.93;;;9.27;;
2674;SDS011;1347;42.122;24.746;2023-05-19T08:09:00;9.37;;;8.57;;
2674;SDS011;1347;42.122;24.746;2023-05-19T08:11:29;10.00;;;8.90;;
2674;SDS011;1347;42.122;24.746;2023-05-19T08:13:56;11.30;;;8.13;;
2674;SDS011;1347;42.122;24.746;2023-05-19T08:16:23;9.60;;;8.63;;
2674;SDS011;1347;42.122;24.746;2023-05-19T08:18:51;9.63;;;8.80;;
2674;SDS011;1347;42.122;24.746;2023-05-19T08:21:19;11.47;;;8.60;;
2674;SDS011;1347;42.122;24.746;2023-05-19T08:23:45;14.07;;;10.00;;
2674;SDS011;1347;42.122;24.746;2023-05-19T08:26:12;11.43;;;9.40;;
2674;SDS011;1347;42.122;24.746;2023-05-19T08:28:40;10.87;;;9.80;;
2674;SDS011;1347;42.122;24.746;2023-05-19T08:31:06;10.17;;;9.20;;
2674;SDS011;1347;42.122;24.746;2023-05-19T08:33:33;9.70;;;8.70;;
2674;SDS011;1347;42.122;24.746;2023-05-19T08:36:02;9.43;;;8.43;;
2674;SDS011;1347;42.122;24.746;2023-05-19T08:38:29;10.30;;;9.17;;
2674;SDS011;1347;42.122;24.746;2023-05-19T08:40:56;11.53;;;9.57;;
2674;SDS011;1347;42.122;24.746;2023-05-19T08:43:23;10.67;;;8.70;;
2674;SDS011;1347;42.122;24.746;2023-05-19T08:45:50;8.93;;;8.00;;
2674;SDS011;1347;42.122;24.746;2023-05-19T08:48:18;10.00;;;9.10;;
2674;SDS011;1347;42.122;24.746;2023-05-19T08:50:45;9.13;;;8.20;;
2674;SDS011;1347;42.122;24.746;2023-05-19T08:53:22;9.67;;;8.77;;
2674;SDS011;1347;42.122;24.746;2023-05-19T08:55:54;9.70;;;8.73;;
2674;SDS011;1347;42.122;24.746;2023-05-19T08:58:27;9.90;;;8.87;;
2674;SDS011;1347;42.122;24.746;2023-05-19T09:00:54;10.77;;;9.77;;
2674;SDS011;1347;42.122;24.746;2023-05-19T09:03:23;11.13;;;10.03;;
2674;SDS011;1347;42.122;24.746;2023-05-19T09:05:52;14.63;;;10.00;;
2674;SDS011;1347;42.122;24.746;2023-05-19T09:08:19;10.80;;;9.70;;
2674;SDS011;1347;42.122;24.746;2023-05-19T09:10:48;20.77;;;10.57;;
2674;SDS011;1347;42.122;24.746;2023-05-19T09:13:15;12.10;;;10.87;;
2674;SDS011;1347;42.122;24.746;2023-05-19T09:15:41;11.40;;;10.30;;
2674;SDS011;1347;42.122;24.746;2023-05-19T09:18:11;15.10;;;11.17;;
2674;SDS011;1347;42.122;24.746;2023-05-19T09:20:39;11.93;;;10.90;;
2674;SDS011;1347;42.122;24.746;2023-05-19T09:23:07;12.83;;;11.73;;
2674;SDS011;1347;42.122;24.746;2023-05-19T09:25:45;12.80;;;11.60;;
2674;SDS011;1347;42.122;24.746;2023-05-19T09:28:14;14.37;;;12.67;;
2674;SDS011;1347;42.122;24.746;2023-05-19T09:30:53;13.90;;;12.70;;
2674;SDS011;1347;42.122;24.746;2023-05-19T09:33:24;14.83;;;13.33;;
2674;SDS011;1347;42.122;24.746;2023-05-19T09:35:52;14.67;;;13.10;;
2674;SDS011;1347;42.122;24.746;2023-05-19T09:38:19;13.50;;;12.30;;
2674;SDS011;1347;42.122;24.746;2023-05-19T09:40:47;19.00;;;13.60;;
2674;SDS011;1347;42.122;24.746;2023-05-19T09:43:15;18.03;;;12.53;;
2674;SDS011;1347;42.122;24.746;2023-05-19T09:45:42;14.23;;;12.87;;
2674;SDS011;1347;42.122;24.746;2023-05-19T09:48:09;13.40;;;12.13;;
2674;SDS011;1347;42.122;24.746;2023-05-19T09:50:36;13.10;;;11.90;;
2674;SDS011;1347;42.122;24.746;2023-05-19T09:53:03;14.73;;;13.23;;
2674;SDS011;1347;42.122;24.746;2023-05-19T09:55:30;13.70;;;12.50;;
2674;SDS011;1347;42.122;24.746;2023-05-19T09:57:58;15.33;;;13.93;;
2674;SDS011;1347;42.122;24.746;2023-05-19T10:00:29;15.33;;;13.90;;
2674;SDS011;1347;42.122;24.746;2023-05-19T10:02:57;13.90;;;12.80;;
2674;SDS011;1347;42.122;24.746;2023-05-19T10:05:26;15.03;;;13.40;;
2674;SDS011;1347;42.122;24.746;2023-05-19T10:07:54;15.07;;;13.57;;
2674;SDS011;1347;42.122;24.746;2023-05-19T10:10:21;14.57;;;13.07;;
2674;SDS011;1347;42.122;24.746;2023-05-19T10:12:48;15.17;;;13.63;;
2674;SDS011;1347;42.122;24.746;2023-05-19T10:15:16;14.60;;;12.57;;
2674;SDS011;1347;42.122;24.746;2023-05-19T10:17:45;14.07;;;12.60;;
2674;SDS011;1347;42.122;24.746;2023-05-19T10:20:13;17.60;;;13.30;;
2674;SDS011;1347;42.122;24.746;2023-05-19T10:22:41;15.50;;;13.97;;
2674;SDS011;1347;42.122;24.746;2023-05-19T10:25:10;15.10;;;13.70;;
2674;SDS011;1347;42.122;24.746;2023-05-19T10:27:41;13.77;;;12.57;;
2674;SDS011;1347;42.122;24.746;2023-05-19T10:30:11;14.20;;;12.93;;
2674;SDS011;1347;42.122;24.746;2023-05-19T10:32:41;13.90;;;12.60;;
2674;SDS011;1347;42.122;24.746;2023-05-19T10:35:18;14.67;;;13.13;;
2674;SDS011;1347;42.122;24.746;2023-05-19T10:37:55;15.07;;;13.77;;
2674;SDS011;1347;42.122;24.746;2023-05-19T10:40:28;13.67;;;12.43;;
2674;SDS011;1347;42.122;24.746;2023-05-19T10:43:14;17.33;;;15.03;;
2674;SDS011;1347;42.122;24.746;2023-05-19T10:45:51;15.33;;;13.80;;
2674;SDS011;1347;42.122;24.746;2023-05-19T10:48:19;15.33;;;13.83;;
2674;SDS011;1347;42.122;24.746;2023-05-19T10:50:48;14.60;;;13.30;;
2674;SDS011;1347;42.122;24.746;2023-05-19T10:53:18;15.17;;;13.80;;
2674;SDS011;1347;42.122;24.746;2023-05-19T10:55:49;13.80;;;12.50;;
2674;SDS011;1347;42.122;24.746;2023-05-19T11:01:05;13.93;;;12.70;;
2674;SDS011;1347;42.122;24.746;2023-05-19T11:03:44;14.63;;;13.13;;
2674;SDS011;1347;42.122;24.746;2023-05-19T11:06:17;16.77;;;14.97;;
2674;SDS011;1347;42.122;24.746;2023-05-19T11:08:56;15.87;;;14.20;;
2674;SDS011;1347;42.122;24.746;2023-05-19T11:11:25;24.70;;;13.77;;
2674;SDS011;1347;42.122;24.746;2023-05-19T11:13:52;14.50;;;9.60;;
2674;SDS011;1347;42.122;24.746;2023-05-19T11:16:26;12.13;;;10.93;;
2674;SDS011;1347;42.122;24.746;2023-05-19T11:18:54;12.17;;;10.13;;
2674;SDS011;1347;42.122;24.746;2023-05-19T11:21:23;14.10;;;10.83;;
2674;SDS011;1347;42.122;24.746;2023-05-19T11:23:50;10.93;;;9.90;;
2674;SDS011;1347;42.122;24.746;2023-05-19T11:29:08;14.63;;;9.10;;
2674;SDS011;1347;42.122;24.746;2023-05-19T11:31:36;13.13;;;9.77;;
2674;SDS011;1347;42.122;24.746;2023-05-19T11:34:04;11.30;;;9.40;;
2674;SDS011;1347;42.122;24.746;2023-05-19T11:36:33;11.40;;;8.83;;
2674;SDS011;1347;42.122;24.746;2023-05-19T11:39:02;9.70;;;8.80;;
2674;SDS011;1347;42.122;24.746;2023-05-19T11:41:30;11.00;;;9.07;;
2674;SDS011;1347;42.122;24.746;2023-05-19T11:43:57;9.97;;;8.97;;
2674;SDS011;1347;42.122;24.746;2023-05-19T11:46:24;13.47;;;9.70;;
2674;SDS011;1347;42.122;24.746;2023-05-19T11:48:52;11.90;;;10.73;;
2674;SDS011;1347;42.122;24.746;2023-05-19T11:51:20;10.80;;;9.80;;
2674;SDS011;1347;42.122;24.746;2023-05-19T11:53:49;12.67;;;10.57;;
2674;SDS011;1347;42.122;24.746;2023-05-19T11:56:18;12.23;;;10.47;;
2674;SDS011;1347;42.122;24.746;2023-05-19T11:58:45;16.47;;;11.03;;
2674;SDS011;1347;42.122;24.746;2023-05-19T12:01:12;13.40;;;11.80;;
2674;SDS011;1347;42.122;24.746;2023-05-19T12:03:39;12.63;;;11.43;;
2674;SDS011;1347;42.122;24.746;2023-05-19T12:06:05;13.70;;;12.40;;
2674;SDS011;1347;42.122;24.746;2023-05-19T12:08:34;13.23;;;12.20;;
2674;SDS011;1347;42.122;24.746;2023-05-19T12:11:03;12.67;;;11.37;;
2674;SDS011;1347;42.122;24.746;2023-05-19T12:13:30;12.70;;;11.53;;
2674;SDS011;1347;42.122;24.746;2023-05-19T12:15:58;13.63;;;12.43;;
2674;SDS011;1347;42.122;24.746;2023-05-19T12:18:27;12.37;;;10.80;;
2674;SDS011;1347;42.122;24.746;2023-05-19T12:20:56;13.63;;;12.43;;
2674;SDS011;1347;42.122;24.746;2023-05-19T12:23:23;13.10;;;11.90;;
2674;SDS011;1347;42.122;24.746;2023-05-19T12:25:50;13.20;;;12.10;;
2674;SDS011;1347;42.122;24.746;2023-05-19T12:28:19;13.23;;;12.03;;
2674;SDS011;1347;42.122;24.746;2023-05-19T12:30:46;14.53;;;13.23;;
2674;SDS011;1347;42.122;24.746;2023-05-19T12:33:16;16.13;;;11.60;;
2674;SDS011;1347;42.122;24.746;2023-05-19T12:35:43;13.80;;;12.60;;
2674;SDS011;1347;42.122;24.746;2023-05-19T12:38:12;14.30;;;12.70;;
2674;SDS011;1347;42.122;24.746;2023-05-19T12:40:40;12.97;;;11.47;;
2674;SDS011;1347;42.122;24.746;2023-05-19T12:43:07;12.30;;;11.30;;
2674;SDS011;1347;42.122;24.746;2023-05-19T12:45:46;13.67;;;12.40;;
2674;SDS011;1347;42.122;24.746;2023-05-19T12:48:13;13.70;;;12.53;;
2674;SDS011;1347;42.122;24.746;2023-05-19T12:50:40;12.47;;;11.30;;
2674;SDS011;1347;42.122;24.746;2023-05-19T12:53:08;13.00;;;12.03;;
2674;SDS011;1347;42.122;24.746;2023-05-19T12:55:37;12.90;;;11.93;;
2674;SDS011;1347;42.122;24.746;2023-05-19T12:58:06;14.50;;;13.30;;
2674;SDS011;1347;42.122;24.746;2023-05-19T13:00:35;12.97;;;11.80;;
2674;SDS011;1347;42.122;24.746;2023-05-19T13:03:07;13.27;;;12.40;;
2674;SDS011;1347;42.122;24.746;2023-05-19T13:05:40;13.40;;;12.30;;
2674;SDS011;1347;42.122;24.746;2023-05-19T13:08:10;12.37;;;11.27;;
2674;SDS011;1347;42.122;24.746;2023-05-19T13:10:39;13.53;;;12.50;;
2674;SDS011;1347;42.122;24.746;2023-05-19T13:13:07;13.07;;;12.00;;
2674;SDS011;1347;42.122;24.746;2023-05-19T13:15:36;12.90;;;11.80;;
2674;SDS011;1347;42.122;24.746;2023-05-19T13:18:04;13.60;;;12.50;;
2674;SDS011;1347;42.122;24.746;2023-05-19T13:20:34;13.53;;;12.43;;
2674;SDS011;1347;42.122;24.746;2023-05-19T13:23:01;12.43;;;11.40;;
2674;SDS011;1347;42.122;24.746;2023-05-19T13:25:30;13.00;;;12.07;;
2674;SDS011;1347;42.122;24.746;2023-05-19T13:27:58;13.27;;;12.17;;
2674;SDS011;1347;42.122;24.746;2023-05-19T13:30:29;13.90;;;12.90;;
2674;SDS011;1347;42.122;24.746;2023-05-19T13:32:56;14.03;;;13.00;;
2674;SDS011;1347;42.122;24.746;2023-05-19T13:35:23;13.57;;;12.57;;
2674;SDS011;1347;42.122;24.746;2023-05-19T13:37:51;15.97;;;11.70;;
2674;SDS011;1347;42.122;24.746;2023-05-19T13:40:18;13.03;;;11.93;;
2674;SDS011;1347;42.122;24.746;2023-05-19T13:42:45;14.60;;;13.40;;
2674;SDS011;1347;42.122;24.746;2023-05-19T13:45:12;13.43;;;12.03;;
2674;SDS011;1347;42.122;24.746;2023-05-19T13:47:39;14.17;;;12.87;;
2674;SDS011;1347;42.122;24.746;2023-05-19T13:50:06;15.50;;;14.17;;
2674;SDS011;1347;42.122;24.746;2023-05-19T13:52:33;15.17;;;13.40;;
2674;SDS011;1347;42.122;24.746;2023-05-19T13:55:02;15.40;;;13.43;;
2674;SDS011;1347;42.122;24.746;2023-05-19T13:57:29;13.27;;;12.20;;
2674;SDS011;1347;42.122;24.746;2023-05-19T13:59:56;14.07;;;12.67;;
2674;SDS011;1347;42.122;24.746;2023-05-19T14:02:22;15.17;;;13.83;;
2674;SDS011;1347;42.122;24.746;2023-05-19T14:04:49;14.60;;;13.30;;
2674;SDS011;1347;42.122;24.746;2023-05-19T14:07:16;13.63;;;12.53;;
2674;SDS011;1347;42.122;24.746;2023-05-19T14:09:43;15.30;;;13.70;;
2674;SDS011;1347;42.122;24.746;2023-05-19T14:12:12;14.40;;;13.00;;
2674;SDS011;1347;42.122;24.746;2023-05-19T14:14:39;15.90;;;13.57;;
2674;SDS011;1347;42.122;24.746;2023-05-19T14:17:06;17.80;;;12.53;;
2674;SDS011;1347;42.122;24.746;2023-05-19T14:19:33;15.97;;;11.60;;
2674;SDS011;1347;42.122;24.746;2023-05-19T14:22:00;16.80;;;8.20;;
2674;SDS011;1347;42.122;24.746;2023-05-19T14:24:27;11.30;;;8.97;;
2674;SDS011;1347;42.122;24.746;2023-05-19T14:26:53;10.70;;;8.27;;
2674;SDS011;1347;42.122;24.746;2023-05-19T14:29:22;11.37;;;9.20;;
2674;SDS011;1347;42.122;24.746;2023-05-19T14:31:49;11.07;;;9.97;;
2674;SDS011;1347;42.122;24.746;2023-05-19T14:34:15;11.13;;;9.93;;
2674;SDS011;1347;42.122;24.746;2023-05-19T14:36:45;10.80;;;9.77;;
2674;SDS011;1347;42.122;24.746;2023-05-19T14:39:11;11.93;;;10.80;;
2674;SDS011;1347;42.122;24.746;2023-05-19T14:41:38;10.90;;;8.93;;
2674;SDS011;1347;42.122;24.746;2023-05-19T14:44:05;18.57;;;9.30;;
2674;SDS011;1347;42.122;24.746;2023-05-19T14:46:34;10.90;;;9.30;;
2674;SDS011;1347;42.122;24.746;2023-05-19T14:49:01;15.90;;;11.17;;
2674;SDS011;1347;42.122;24.746;2023-05-19T14:51:30;11.50;;;10.30;;
2674;SDS011;1347;42.122;24.746;2023-05-19T14:53:57;10.80;;;9.73;;
2674;SDS011;1347;42.122;24.746;2023-05-19T14:56:24;11.63;;;10.53;;
2674;SDS011;1347;42.122;24.746;2023-05-19T14:58:52;11.67;;;10.43;;
2674;SDS011;1347;42.122;24.746;2023-05-19T15:01:18;11.43;;;10.20;;
2674;SDS011;1347;42.122;24.746;2023-05-19T15:03:47;11.53;;;9.93;;